sensor_id;sensor_type;location;lat;lon;timestamp;pressure;altitude;pressure_sealevel;temperature;humidity
15382;BME280;7789;51.364;12.358;2023-09-19T00:02:38;99495.47;;;19.83;100.00
15382;BME280;7789;51.364;12.358;2023-09-19T00:07:49;99489.75;;;19.80;100.00
15382;BME280;7789;51.364;12.358;2023-09-19T00:13:03;99478.94;;;19.75;100.00
15382;BME280;7789;51.364;12.358;2023-09-19T00:18:14;99481.97;;;19.72;100.00
15382;BME280;7789;51.364;12.358;2023-09-19T00:23:22;99488.72;;;19.68;100.00
15382;BME280;7789;51.364;12.358;2023-09-19T00:28:30;99478.94;;;19.62;100.00
15382;BME280;7789;51.364;12.358;2023-09-19T00:33:46;99484.66;;;19.59;100.00
15382;BME280;7789;51.364;12.358;2023-09-19T00:38:54;99477.94;;;19.56;100.00
15382;BME280;7789;51.364;12.358;2023-09-19T00:44:00;99487.69;;;19.56;100.00
15382;BME280;7789;51.364;12.358;2023-09-19T00:49:04;99476.47;;;19.54;100.00
15382;BME280;7789;51.364;12.358;2023-09-19T00:54:26;99482.19;;;19.51;100.00
15382;BME280;7789;51.364;12.358;2023-09-19T00:59:34;99479.97;;;19.48;100.00
15382;BME280;7789;51.364;12.358;2023-09-19T01:04:40;99481.41;;;19.44;100.00
15382;BME280;7789;51.364;12.358;2023-09-19T01:09:53;99491.41;;;19.42;100.00
15382;BME280;7789;51.364;12.358;2023-09-19T01:15:17;99487.13;;;19.41;100.00
15382;BME280;7789;51.364;12.358;2023-09-19T01:20:36;99486.28;;;19.34;100.00
15382;BME280;7789;51.364;12.358;2023-09-19T01:26:10;99486.69;;;19.31;100.00
15382;BME280;7789;51.364;12.358;2023-09-19T01:31:29;99505.03;;;19.26;100.00
15382;BME280;7789;51.364;12.358;2023-09-19T01:36:38;99519.91;;;19.20;100.00
15382;BME280;7789;51.364;12.358;2023-09-19T01:42:03;99510.50;;;19.18;100.00
15382;BME280;7789;51.364;12.358;2023-09-19T01:47:26;99514.19;;;19.17;100.00
15382;BME280;7789;51.364;12.358;2023-09-19T01:52:38;99518.41;;;19.11;100.00
15382;BME280;7789;51.364;12.358;2023-09-19T01:57:51;99525.97;;;19.08;100.00
15382;BME280;7789;51.364;12.358;2023-09-19T02:03:03;99535.13;;;19.05;100.00
15382;BME280;7789;51.364;12.358;2023-09-19T02:08:12;99548.38;;;19.05;100.00
15382;BME280;7789;51.364;12.358;2023-09-19T02:13:24;99561.63;;;19.05;100.00
15382;BME280;7789;51.364;12.358;2023-09-19T02:18:32;99565.91;;;19.06;100.00
15382;BME280;7789;51.364;12.358;2023-09-19T02:23:39;99563.88;;;19.08;100.00
15382;BME280;7789;51.364;12.358;2023-09-19T02:28:45;99567.13;;;19.10;100.00
15382;BME280;7789;51.364;12.358;2023-09-19T02:33:53;99569.78;;;19.10;100.00
15382;BME280;7789;51.364;12.358;2023-09-19T02:38:58;99552.06;;;19.11;100.00
15382;BME280;7789;51.364;12.358;2023-09-19T02:44:04;99553.88;;;19.10;100.00
15382;BME280;7789;51.364;12.358;2023-09-19T02:49:12;99551.66;;;19.14;100.00
15382;BME280;7789;51.364;12.358;2023-09-19T02:54:17;99555.94;;;19.15;100.00
15382;BME280;7789;51.364;12.358;2023-09-19T02:59:24;99557.41;;;19.17;100.00
15382;BME280;7789;51.364;12.358;2023-09-19T03:04:37;99562.50;;;19.19;100.00
15382;BME280;7789;51.364;12.358;2023-09-19T03:09:42;99564.13;;;19.20;100.00
15382;BME280;7789;51.364;12.358;2023-09-19T03:14:49;99574.56;;;19.21;100.00
15382;BME280;7789;51.364;12.358;2023-09-19T03:19:56;99583.94;;;19.24;100.00
15382;BME280;7789;51.364;12.358;2023-09-19T03:25:01;99587.22;;;19.26;100.00
15382;BME280;7789;51.364;12.358;2023-09-19T03:30:08;99595.97;;;19.26;100.00
15382;BME280;7789;51.364;12.358;2023-09-19T03:35:19;99596.97;;;19.25;100.00
15382;BME280;7789;51.364;12.358;2023-09-19T03:40:30;99609.44;;;19.25;100.00
15382;BME280;7789;51.364;12.358;2023-09-19T03:45:35;99606.97;;;19.23;100.00
15382;BME280;7789;51.364;12.358;2023-09-19T03:50:44;99606.34;;;19.21;100.00
15382;BME280;7789;51.364;12.358;2023-09-19T03:55:53;99606.94;;;19.17;100.00
15382;BME280;7789;51.364;12.358;2023-09-19T04:00:59;99612.63;;;19.14;100.00
15382;BME280;7789;51.364;12.358;2023-09-19T04:06:06;99616.47;;;19.11;100.00
15382;BME280;7789;51.364;12.358;2023-09-19T04:11:12;99622.38;;;19.07;100.00
15382;BME280;7789;51.364;12.358;2023-09-19T04:16:17;99628.28;;;19.02;100.00
15382;BME280;7789;51.364;12.358;2023-09-19T04:21:38;99623.38;;;18.99;100.00
15382;BME280;7789;51.364;12.358;2023-09-19T04:26:53;99626.78;;;18.93;100.00
15382;BME280;7789;51.364;12.358;2023-09-19T04:31:57;99633.31;;;18.91;100.00
15382;BME280;7789;51.364;12.358;2023-09-19T04:37:05;99647.75;;;18.88;100.00
15382;BME280;7789;51.364;12.358;2023-09-19T04:42:13;99648.16;;;18.85;100.00
15382;BME280;7789;51.364;12.358;2023-09-19T04:47:19;99658.50;;;18.80;100.00
15382;BME280;7789;51.364;12.358;2023-09-19T04:52:26;99656.25;;;18.77;100.00
15382;BME280;7789;51.364;12.358;2023-09-19T04:57:31;99659.16;;;18.82;100.00
15382;BME280;7789;51.364;12.358;2023-09-19T05:02:39;99666.69;;;18.85;100.00
15382;BME280;7789;51.364;12.358;2023-09-19T05:08:00;99659.56;;;18.86;100.00
15382;BME280;7789;51.364;12.358;2023-09-19T05:13:11;99678.31;;;18.84;100.00
15382;BME280;7789;51.364;12.358;2023-09-19T05:18:18;99688.91;;;18.84;100.00
15382;BME280;7789;51.364;12.358;2023-09-19T05:23:26;99698.88;;;18.82;100.00
15382;BME280;7789;51.364;12.358;2023-09-19T05:28:32;99717.22;;;18.84;100.00
15382;BME280;7789;51.364;12.358;2023-09-19T05:33:37;99728.66;;;18.84;100.00
15382;BME280;7789;51.364;12.358;2023-09-19T05:38:53;99736.38;;;18.86;100.00
15382;BME280;7789;51.364;12.358;2023-09-19T05:44:08;99734.34;;;18.81;100.00
15382;BME280;7789;51.364;12.358;2023-09-19T05:49:18;99748.81;;;18.85;100.00
15382;BME280;7789;51.364;12.358;2023-09-19T05:54:30;99750.84;;;18.83;100.00
15382;BME280;7789;51.364;12.358;2023-09-19T05:59:36;99753.50;;;18.83;100.00
15382;BME280;7789;51.364;12.358;2023-09-19T06:04:47;99757.56;;;18.86;100.00
15382;BME280;7789;51.364;12.358;2023-09-19T06:09:57;99762.69;;;18.87;100.00
15382;BME280;7789;51.364;12.358;2023-09-19T06:15:03;99782.22;;;19.14;100.00
15382;BME280;7789;51.364;12.358;2023-09-19T06:20:11;99794.44;;;22.41;100.00
15382;BME280;7789;51.364;12.358;2023-09-19T06:25:19;99797.75;;;22.91;96.07
15382;BME280;7789;51.364;12.358;2023-09-19T06:30:25;99797.50;;;25.30;78.92
15382;BME280;7789;51.364;12.358;2023-09-19T06:35:32;99796.81;;;26.69;69.66
15382;BME280;7789;51.364;12.358;2023-09-19T06:40:39;99788.59;;;26.03;71.45
15382;BME280;7789;51.364;12.358;2023-09-19T06:45:47;99797.38;;;27.04;65.46
15382;BME280;7789;51.364;12.358;2023-09-19T06:50:59;99785.59;;;26.00;69.12
15382;BME280;7789;51.364;12.358;2023-09-19T06:56:15;99805.75;;;26.30;66.42
15382;BME280;7789;51.364;12.358;2023-09-19T07:01:21;99804.34;;;28.19;58.97
15382;BME280;7789;51.364;12.358;2023-09-19T07:06:28;99804.13;;;26.29;64.26
15382;BME280;7789;51.364;12.358;2023-09-19T07:11:36;99814.91;;;25.67;66.97
15382;BME280;7789;51.364;12.358;2023-09-19T07:16:46;99819.69;;;25.42;67.36
15382;BME280;7789;51.364;12.358;2023-09-19T07:22:02;99824.09;;;25.02;67.04
15382;BME280;7789;51.364;12.358;2023-09-19T07:27:08;99843.53;;;24.57;66.76
15382;BME280;7789;51.364;12.358;2023-09-19T07:32:13;99849.69;;;24.10;68.81
15382;BME280;7789;51.364;12.358;2023-09-19T07:37:23;99857.72;;;23.92;67.37
15382;BME280;7789;51.364;12.358;2023-09-19T07:42:30;99868.09;;;24.00;67.97
15382;BME280;7789;51.364;12.358;2023-09-19T07:47:36;99874.34;;;24.12;68.36
15382;BME280;7789;51.364;12.358;2023-09-19T07:52:40;99882.50;;;23.99;68.37
15382;BME280;7789;51.364;12.358;2023-09-19T07:57:49;99889.28;;;23.83;67.80
15382;BME280;7789;51.364;12.358;2023-09-19T08:02:55;99899.38;;;23.99;66.77
15382;BME280;7789;51.364;12.358;2023-09-19T08:08:09;99907.34;;;23.81;67.99
15382;BME280;7789;51.364;12.358;2023-09-19T08:13:24;99916.63;;;23.54;66.66
15382;BME280;7789;51.364;12.358;2023-09-19T08:18:30;99908.03;;;23.28;67.11
15382;BME280;7789;51.364;12.358;2023-09-19T08:23:38;99916.59;;;23.05;67.10
15382;BME280;7789;51.364;12.358;2023-09-19T08:28:47;99917.47;;;22.99;69.32
15382;BME280;7789;51.364;12.358;2023-09-19T08:33:54;99917.31;;;22.94;68.78
15382;BME280;7789;51.364;12.358;2023-09-19T08:38:59;99902.53;;;22.92;69.18
15382;BME280;7789;51.364;12.358;2023-09-19T08:44:07;99903.50;;;22.73;68.62
15382;BME280;7789;51.364;12.358;2023-09-19T08:49:19;99914.03;;;22.62;69.79
15382;BME280;7789;51.364;12.358;2023-09-19T08:54:36;99921.44;;;22.60;70.47
15382;BME280;7789;51.364;12.358;2023-09-19T08:59:47;99917.47;;;22.68;71.87
15382;BME280;7789;51.364;12.358;2023-09-19T09:04:54;99906.44;;;22.65;69.33
15382;BME280;7789;51.364;12.358;2023-09-19T09:10:02;99918.63;;;22.79;70.64
15382;BME280;7789;51.364;12.358;2023-09-19T09:15:19;99924.78;;;22.79;68.16
15382;BME280;7789;51.364;12.358;2023-09-19T09:20:26;99916.78;;;22.79;66.67
15382;BME280;7789;51.364;12.358;2023-09-19T09:25:52;99916.81;;;22.73;64.66
15382;BME280;7789;51.364;12.358;2023-09-19T09:31:24;99910.03;;;22.77;63.89
15382;BME280;7789;51.364;12.358;2023-09-19T09:36:47;99922.88;;;22.86;60.22
15382;BME280;7789;51.364;12.358;2023-09-19T09:41:56;99936.53;;;23.03;59.66
15382;BME280;7789;51.364;12.358;2023-09-19T09:47:04;99932.78;;;23.17;59.60
15382;BME280;7789;51.364;12.358;2023-09-19T09:52:28;99936.63;;;23.21;58.49
15382;BME280;7789;51.364;12.358;2023-09-19T09:57:37;99941.34;;;23.25;58.06
15382;BME280;7789;51.364;12.358;2023-09-19T10:02:50;99936.47;;;23.16;54.86
15382;BME280;7789;51.364;12.358;2023-09-19T10:07:56;99938.53;;;23.14;55.65
15382;BME280;7789;51.364;12.358;2023-09-19T10:13:25;99942.47;;;23.11;56.38
15382;BME280;7789;51.364;12.358;2023-09-19T10:18:46;99953.94;;;23.12;57.79
15382;BME280;7789;51.364;12.358;2023-09-19T10:23:54;99959.63;;;23.22;56.82
15382;BME280;7789;51.364;12.358;2023-09-19T10:29:00;99960.84;;;23.19;57.38
15382;BME280;7789;51.364;12.358;2023-09-19T10:34:08;99966.19;;;23.19;56.31
15382;BME280;7789;51.364;12.358;2023-09-19T10:39:15;99966.59;;;23.23;57.05
15382;BME280;7789;51.364;12.358;2023-09-19T10:44:41;99962.13;;;23.17;56.89
15382;BME280;7789;51.364;12.358;2023-09-19T10:49:50;99961.72;;;23.13;55.81
15382;BME280;7789;51.364;12.358;2023-09-19T10:54:59;99958.63;;;23.16;56.83
15382;BME280;7789;51.364;12.358;2023-09-19T11:00:06;99955.91;;;23.23;57.06
15382;BME280;7789;51.364;12.358;2023-09-19T11:05:36;99959.78;;;23.27;55.43
15382;BME280;7789;51.364;12.358;2023-09-19T11:10:45;99963.53;;;23.19;54.50
15382;BME280;7789;51.364;12.358;2023-09-19T11:16:07;99964.31;;;23.26;53.17
15382;BME280;7789;51.364;12.358;2023-09-19T11:21:54;99964.53;;;23.25;52.74
15382;BME280;7789;51.364;12.358;2023-09-19T11:27:12;99952.97;;;23.31;54.44
15382;BME280;7789;51.364;12.358;2023-09-19T11:38:04;99951.13;;;23.31;53.21
15382;BME280;7789;51.364;12.358;2023-09-19T11:43:32;99943.38;;;23.48;54.33
15382;BME280;7789;51.364;12.358;2023-09-19T11:48:40;99936.00;;;23.50;54.09
15382;BME280;7789;51.364;12.358;2023-09-19T11:53:48;99944.75;;;23.57;52.28
15382;BME280;7789;51.364;12.358;2023-09-19T11:58:52;99938.00;;;23.54;51.98
15382;BME280;7789;51.364;12.358;2023-09-19T12:03:58;99928.28;;;23.60;53.87
15382;BME280;7789;51.364;12.358;2023-09-19T12:09:04;99941.44;;;23.61;52.83
15382;BME280;7789;51.364;12.358;2023-09-19T12:14:22;99937.13;;;23.60;53.62
15382;BME280;7789;51.364;12.358;2023-09-19T12:19:26;99938.25;;;23.71;53.72
15382;BME280;7789;51.364;12.358;2023-09-19T12:24:32;99941.53;;;23.73;53.34
15382;BME280;7789;51.364;12.358;2023-09-19T12:29:43;99932.59;;;23.85;53.52
15382;BME280;7789;51.364;12.358;2023-09-19T12:34:51;99929.47;;;23.64;52.47
15382;BME280;7789;51.364;12.358;2023-09-19T12:40:05;99924.59;;;23.61;50.33
15382;BME280;7789;51.364;12.358;2023-09-19T12:45:19;99929.59;;;23.75;52.07
15382;BME280;7789;51.364;12.358;2023-09-19T12:50:23;99927.94;;;23.74;50.79
15382;BME280;7789;51.364;12.358;2023-09-19T12:55:32;99930.47;;;23.69;51.31
15382;BME280;7789;51.364;12.358;2023-09-19T13:00:39;99922.16;;;23.59;50.31
15382;BME280;7789;51.364;12.358;2023-09-19T13:05:50;99919.63;;;23.64;50.66
15382;BME280;7789;51.364;12.358;2023-09-19T13:11:10;99914.28;;;23.64;49.32
15382;BME280;7789;51.364;12.358;2023-09-19T13:16:15;99918.38;;;23.67;50.16
15382;BME280;7789;51.364;12.358;2023-09-19T13:21:28;99914.88;;;23.66;49.71
15382;BME280;7789;51.364;12.358;2023-09-19T13:26:38;99918.66;;;23.59;49.98
15382;BME280;7789;51.364;12.358;2023-09-19T13:31:41;99913.16;;;23.54;50.21
15382;BME280;7789;51.364;12.358;2023-09-19T13:36:45;99897.94;;;23.54;51.68
15382;BME280;7789;51.364;12.358;2023-09-19T13:41:51;99905.50;;;23.57;50.63
15382;BME280;7789;51.364;12.358;2023-09-19T13:46:55;99901.00;;;23.58;51.92
15382;BME280;7789;51.364;12.358;2023-09-19T13:51:59;99894.03;;;23.57;52.14
15382;BME280;7789;51.364;12.358;2023-09-19T13:57:06;99901.66;;;23.53;50.22
15382;BME280;7789;51.364;12.358;2023-09-19T14:02:12;99884.66;;;23.48;50.01
15382;BME280;7789;51.364;12.358;2023-09-19T14:07:16;99884.44;;;23.49;50.92
15382;BME280;7789;51.364;12.358;2023-09-19T14:12:22;99889.59;;;23.51;51.08
15382;BME280;7789;51.364;12.358;2023-09-19T14:17:26;99879.72;;;23.51;50.50
15382;BME280;7789;51.364;12.358;2023-09-19T14:22:31;99878.22;;;23.55;50.35
15382;BME280;7789;51.364;12.358;2023-09-19T14:27:36;99872.72;;;23.50;50.45
15382;BME280;7789;51.364;12.358;2023-09-19T14:32:40;99870.13;;;23.44;49.68
15382;BME280;7789;51.364;12.358;2023-09-19T14:37:44;99871.03;;;23.38;49.84
15382;BME280;7789;51.364;12.358;2023-09-19T14:42:48;99872.25;;;23.35;49.90
15382;BME280;7789;51.364;12.358;2023-09-19T14:47:55;99861.00;;;23.33;50.80
15382;BME280;7789;51.364;12.358;2023-09-19T14:52:59;99862.69;;;23.28;51.40
15382;BME280;7789;51.364;12.358;2023-09-19T14:58:05;99867.03;;;23.22;50.96
15382;BME280;7789;51.364;12.358;2023-09-19T15:03:09;99863.81;;;23.14;51.06
15382;BME280;7789;51.364;12.358;2023-09-19T15:08:13;99865.91;;;23.05;51.32
15382;BME280;7789;51.364;12.358;2023-09-19T15:13:19;99862.50;;;22.98;49.87
15382;BME280;7789;51.364;12.358;2023-09-19T15:18:22;99862.50;;;22.98;49.94
15382;BME280;7789;51.364;12.358;2023-09-19T15:23:26;99865.59;;;22.95;49.66
15382;BME280;7789;51.364;12.358;2023-09-19T15:28:35;99857.66;;;22.89;48.13
15382;BME280;7789;51.364;12.358;2023-09-19T15:33:39;99860.75;;;22.86;48.80
15382;BME280;7789;51.364;12.358;2023-09-19T15:38:59;99857.09;;;22.80;48.04
15382;BME280;7789;51.364;12.358;2023-09-19T15:44:11;99859.41;;;22.70;47.65
15382;BME280;7789;51.364;12.358;2023-09-19T15:49:26;99864.38;;;22.67;47.69
15382;BME280;7789;51.364;12.358;2023-09-19T15:54:29;99875.50;;;22.58;48.22
15382;BME280;7789;51.364;12.358;2023-09-19T15:59:36;99869.81;;;22.48;47.75
15382;BME280;7789;51.364;12.358;2023-09-19T16:04:40;99871.91;;;22.39;48.86
15382;BME280;7789;51.364;12.358;2023-09-19T16:09:45;99857.78;;;22.32;49.10
15382;BME280;7789;51.364;12.358;2023-09-19T16:14:50;99861.53;;;22.25;48.40
15382;BME280;7789;51.364;12.358;2023-09-19T16:19:53;99874.88;;;22.18;48.89
15382;BME280;7789;51.364;12.358;2023-09-19T16:24:56;99873.25;;;22.11;49.60
15382;BME280;7789;51.364;12.358;2023-09-19T16:30:01;99866.31;;;22.03;49.42
15382;BME280;7789;51.364;12.358;2023-09-19T16:35:05;99868.19;;;21.96;49.01
15382;BME280;7789;51.364;12.358;2023-09-19T16:40:10;99866.59;;;21.89;49.86
15382;BME280;7789;51.364;12.358;2023-09-19T16:45:15;99867.03;;;21.79;50.68
15382;BME280;7789;51.364;12.358;2023-09-19T16:50:19;99879.31;;;21.74;50.81
15382;BME280;7789;51.364;12.358;2023-09-19T16:55:23;99874.63;;;21.63;51.10
15382;BME280;7789;51.364;12.358;2023-09-19T17:00:28;99871.53;;;21.53;51.15
15382;BME280;7789;51.364;12.358;2023-09-19T17:05:33;99894.06;;;21.44;51.55
15382;BME280;7789;51.364;12.358;2023-09-19T17:10:44;99889.97;;;21.35;51.86
15382;BME280;7789;51.364;12.358;2023-09-19T17:16:00;99892.25;;;21.25;52.43
15382;BME280;7789;51.364;12.358;2023-09-19T17:21:13;99897.38;;;21.13;52.81
15382;BME280;7789;51.364;12.358;2023-09-19T17:26:31;99895.31;;;21.02;53.33
15382;BME280;7789;51.364;12.358;2023-09-19T17:31:41;99910.03;;;20.92;53.68
15382;BME280;7789;51.364;12.358;2023-09-19T17:36:52;99914.25;;;20.80;54.14
15382;BME280;7789;51.364;12.358;2023-09-19T17:41:58;99917.13;;;20.72;54.66
15382;BME280;7789;51.364;12.358;2023-09-19T17:47:12;99915.22;;;20.60;55.71
15382;BME280;7789;51.364;12.358;2023-09-19T17:52:22;99924.22;;;20.52;56.32
15382;BME280;7789;51.364;12.358;2023-09-19T17:57:30;99920.50;;;20.40;56.73
15382;BME280;7789;51.364;12.358;2023-09-19T18:02:38;99930.47;;;20.32;56.13
15382;BME280;7789;51.364;12.358;2023-09-19T18:07:46;99932.47;;;20.23;56.85
15382;BME280;7789;51.364;12.358;2023-09-19T18:12:54;99939.97;;;20.13;56.75
15382;BME280;7789;51.364;12.358;2023-09-19T18:18:09;99969.13;;;20.07;57.21
15382;BME280;7789;51.364;12.358;2023-09-19T18:23:17;99966.81;;;19.97;57.22
15382;BME280;7789;51.364;12.358;2023-09-19T18:28:24;99971.09;;;19.92;57.76
15382;BME280;7789;51.364;12.358;2023-09-19T18:33:33;99976.72;;;19.82;57.48
15382;BME280;7789;51.364;12.358;2023-09-19T18:38:43;99967.09;;;19.75;57.25
15382;BME280;7789;51.364;12.358;2023-09-19T18:43:49;99982.75;;;19.70;57.08
15382;BME280;7789;51.364;12.358;2023-09-19T18:48:58;99991.47;;;19.64;57.27
15382;BME280;7789;51.364;12.358;2023-09-19T18:54:09;99987.59;;;19.60;57.55
15382;BME280;7789;51.364;12.358;2023-09-19T18:59:15;99985.69;;;19.54;57.33
15382;BME280;7789;51.364;12.358;2023-09-19T19:04:30;99990.31;;;19.45;57.88
15382;BME280;7789;51.364;12.358;2023-09-19T19:09:37;99990.25;;;19.39;58.08
15382;BME280;7789;51.364;12.358;2023-09-19T19:14:46;99991.00;;;19.33;58.53
15382;BME280;7789;51.364;12.358;2023-09-19T19:20:08;99997.72;;;19.29;58.52
15382;BME280;7789;51.364;12.358;2023-09-19T19:25:15;100002.78;;;19.24;58.79
15382;BME280;7789;51.364;12.358;2023-09-19T19:30:22;99992.09;;;19.17;59.44
15382;BME280;7789;51.364;12.358;2023-09-19T19:35:30;99998.94;;;19.12;60.38
15382;BME280;7789;51.364;12.358;2023-09-19T19:40:36;99996.84;;;19.07;59.91
15382;BME280;7789;51.364;12.358;2023-09-19T19:45:53;99996.97;;;18.99;60.37
15382;BME280;7789;51.364;12.358;2023-09-19T19:51:07;99998.97;;;18.97;60.54
15382;BME280;7789;51.364;12.358;2023-09-19T19:56:16;99995.28;;;18.92;61.05
15382;BME280;7789;51.364;12.358;2023-09-19T20:01:24;99991.53;;;18.86;61.27
15382;BME280;7789;51.364;12.358;2023-09-19T20:06:32;99991.28;;;18.81;61.79
15382;BME280;7789;51.364;12.358;2023-09-19T20:11:40;99991.84;;;18.77;62.13
15382;BME280;7789;51.364;12.358;2023-09-19T20:16:46;99990.19;;;18.76;62.36
15382;BME280;7789;51.364;12.358;2023-09-19T20:21:53;99994.88;;;18.74;62.25
15382;BME280;7789;51.364;12.358;2023-09-19T20:27:01;99991.94;;;18.69;62.98
15382;BME280;7789;51.364;12.358;2023-09-19T20:32:09;99983.72;;;18.64;62.47
15382;BME280;7789;51.364;12.358;2023-09-19T20:37:18;99990.41;;;18.60;62.82
15382;BME280;7789;51.364;12.358;2023-09-19T20:42:29;99995.25;;;18.57;62.98
15382;BME280;7789;51.364;12.358;2023-09-19T20:47:36;99988.22;;;18.49;64.93
15382;BME280;7789;51.364;12.358;2023-09-19T20:52:47;99983.47;;;18.45;65.01
15382;BME280;7789;51.364;12.358;2023-09-19T20:57:59;99986.72;;;18.40;65.12
15382;BME280;7789;51.364;12.358;2023-09-19T21:03:05;99975.66;;;18.37;65.55
15382;BME280;7789;51.364;12.358;2023-09-19T21:08:20;99971.53;;;18.34;66.08
15382;BME280;7789;51.364;12.358;2023-09-19T21:13:24;99975.41;;;18.32;66.44
15382;BME280;7789;51.364;12.358;2023-09-19T21:18:30;99973.75;;;18.31;66.66
15382;BME280;7789;51.364;12.358;2023-09-19T21:23:39;99974.94;;;18.28;67.84
15382;BME280;7789;51.364;12.358;2023-09-19T21:28:46;99984.03;;;18.26;67.99
15382;BME280;7789;51.364;12.358;2023-09-19T21:33:56;99981.75;;;18.23;68.06
15382;BME280;7789;51.364;12.358;2023-09-19T21:39:09;99975.66;;;18.22;69.12
15382;BME280;7789;51.364;12.358;2023-09-19T21:44:26;99979.47;;;18.20;69.08
15382;BME280;7789;51.364;12.358;2023-09-19T21:49:42;99970.28;;;18.16;69.29
15382;BME280;7789;51.364;12.358;2023-09-19T21:54:53;99968.53;;;18.08;70.07
15382;BME280;7789;51.364;12.358;2023-09-19T22:00:00;99963.63;;;18.05;70.70
15382;BME280;7789;51.364;12.358;2023-09-19T22:05:06;99965.78;;;18.02;71.51
15382;BME280;7789;51.364;12.358;2023-09-19T22:10:15;99967.16;;;17.98;72.00
15382;BME280;7789;51.364;12.358;2023-09-19T22:15:19;99965.22;;;17.92;72.12
15382;BME280;7789;51.364;12.358;2023-09-19T22:20:25;99967.44;;;17.88;72.24
15382;BME280;7789;51.364;12.358;2023-09-19T22:25:37;99963.50;;;17.84;72.70
15382;BME280;7789;51.364;12.358;2023-09-19T22:30:45;99957.78;;;17.81;73.33
15382;BME280;7789;51.364;12.358;2023-09-19T22:35:49;99960.59;;;17.79;73.63
15382;BME280;7789;51.364;12.358;2023-09-19T22:41:09;99955.66;;;17.76;74.43
15382;BME280;7789;51.364;12.358;2023-09-19T22:46:16;99960.47;;;17.73;74.45
15382;BME280;7789;51.364;12.358;2023-09-19T22:51:21;99964.31;;;17.70;75.10
15382;BME280;7789;51.364;12.358;2023-09-19T22:56:32;99957.56;;;17.68;75.99
15382;BME280;7789;51.364;12.358;2023-09-19T23:01:37;99959.94;;;17.63;76.13
15382;BME280;7789;51.364;12.358;2023-09-19T23:06:46;99966.41;;;17.60;76.15
15382;BME280;7789;51.364;12.358;2023-09-19T23:11:58;99963.28;;;17.57;76.62
15382;BME280;7789;51.364;12.358;2023-09-19T23:17:12;99964.81;;;17.51;76.97
15382;BME280;7789;51.364;12.358;2023-09-19T23:22:17;99954.81;;;17.47;77.63
15382;BME280;7789;51.364;12.358;2023-09-19T23:27:29;99957.78;;;17.44;78.60
15382;BME280;7789;51.364;12.358;2023-09-19T23:32:38;99960.16;;;17.39;79.13
15382;BME280;7789;51.364;12.358;2023-09-19T23:37:51;99951.56;;;17.37;79.89
15382;BME280;7789;51.364;12.358;2023-09-19T23:42:59;99956.88;;;17.37;80.79
15382;BME280;7789;51.364;12.358;2023-09-19T23:48:04;99961.50;;;17.35;81.38
15382;BME280;7789;51.364;12.358;2023-09-19T23:53:11;99970.25;;;17.35;81.78
15382;BME280;7789;51.364;12.358;2023-09-19T23:58:20;99969.56;;;17.33;82.51
